createdAt,value
2018-07-24T00:00:57.730Z,22.43
2018-07-24T00:05:53.322Z,22.30
2018-07-24T00:10:49.346Z,22.38
2018-07-24T00:15:45.291Z,22.32
2018-07-24T00:20:41.880Z,22.48
2018-07-24T00:25:37.949Z,22.98
2018-07-24T00:30:35.056Z,23.17
2018-07-24T00:35:30.529Z,23.00
2018-07-24T00:40:27.389Z,23.05
2018-07-24T00:45:23.041Z,23.00
2018-07-24T00:50:19.064Z,22.88
2018-07-24T00:55:16.038Z,22.84
2018-07-24T01:00:12.019Z,22.47
2018-07-24T01:05:08.863Z,22.48
2018-07-24T01:10:05.494Z,22.28
2018-07-24T01:15:01.737Z,21.99
2018-07-24T01:19:57.753Z,22.00
2018-07-24T01:24:54.895Z,21.95
2018-07-24T01:29:51.861Z,21.89
2018-07-24T01:34:47.352Z,21.80
2018-07-24T01:39:44.320Z,21.80
2018-07-24T01:44:40.198Z,21.76
2018-07-24T01:49:35.971Z,21.67
2018-07-24T01:54:31.700Z,21.62
2018-07-24T01:59:27.578Z,21.57
2018-07-24T02:04:23.186Z,21.43
2018-07-24T02:09:18.916Z,21.36
2018-07-24T02:14:15.807Z,21.24
2018-07-24T02:19:11.298Z,21.36
2018-07-24T02:24:07.129Z,21.18
2018-07-24T02:29:02.959Z,20.97
2018-07-24T02:33:58.849Z,20.74
2018-07-24T02:38:54.515Z,20.56
2018-07-24T02:43:50.527Z,20.56
2018-07-24T02:48:47.307Z,20.40
2018-07-24T02:53:42.661Z,20.31
2018-07-24T02:58:38.300Z,20.21
2018-07-24T03:03:35.636Z,20.31
2018-07-24T03:08:31.245Z,20.14
2018-07-24T03:13:27.215Z,20.00
2018-07-24T03:18:23.036Z,19.95
2018-07-24T03:23:19.946Z,19.71
2018-07-24T03:28:16.601Z,19.73
2018-07-24T03:33:12.913Z,19.63
2018-07-24T03:38:08.892Z,19.82
2018-07-24T03:43:05.011Z,20.26
2018-07-24T03:48:01.144Z,20.59
2018-07-24T03:52:57.174Z,20.63
2018-07-24T03:57:54.921Z,20.31
2018-07-24T04:02:50.394Z,20.34
2018-07-24T04:07:46.539Z,20.51
2018-07-24T04:12:42.427Z,20.93
2018-07-24T04:17:38.666Z,20.99
2018-07-24T04:22:35.047Z,21.12
2018-07-24T04:27:31.273Z,21.37
2018-07-24T04:32:27.516Z,21.62
2018-07-24T04:37:23.912Z,22.38
2018-07-24T04:42:20.532Z,23.10
2018-07-24T04:47:17.016Z,23.62
2018-07-24T04:52:13.673Z,24.13
2018-07-24T04:57:10.374Z,24.73
2018-07-24T05:02:06.975Z,24.98
2018-07-24T05:07:04.189Z,24.81
2018-07-24T05:12:01.532Z,25.13
2018-07-24T05:16:58.220Z,25.60
2018-07-24T05:21:54.501Z,25.41
2018-07-24T05:26:50.448Z,25.11
2018-07-24T05:31:46.097Z,24.93
2018-07-24T05:36:41.998Z,24.95
2018-07-24T05:41:38.093Z,25.10
2018-07-24T05:46:35.189Z,25.35
2018-07-24T05:51:31.115Z,25.40
2018-07-24T05:56:28.324Z,25.75
2018-07-24T06:01:25.593Z,26.10
2018-07-24T06:06:21.591Z,26.05
2018-07-24T06:11:18.124Z,25.65
2018-07-24T06:16:13.689Z,25.18
2018-07-24T06:21:09.161Z,25.01
2018-07-24T06:26:04.675Z,24.80
2018-07-24T06:31:01.288Z,24.74
2018-07-24T06:35:57.075Z,24.80
2018-07-24T06:40:53.072Z,24.98
2018-07-24T06:45:51.097Z,25.22
2018-07-24T06:50:46.752Z,25.28
2018-07-24T06:55:42.572Z,25.10
2018-07-24T07:00:38.541Z,25.23
2018-07-24T07:05:34.651Z,25.46
2018-07-24T07:10:30.679Z,25.65
2018-07-24T07:15:26.620Z,25.68
2018-07-24T07:20:23.575Z,25.80
2018-07-24T07:25:19.294Z,25.87
2018-07-24T07:30:16.416Z,25.96
2018-07-24T07:35:12.303Z,26.02
2018-07-24T07:40:08.095Z,26.13
2018-07-24T07:45:04.289Z,26.38
2018-07-24T07:50:00.329Z,26.52
2018-07-24T07:54:56.666Z,27.15
2018-07-24T07:59:55.171Z,28.98
2018-07-24T08:04:55.713Z,31.36
2018-07-24T08:09:54.195Z,33.23
2018-07-24T08:14:53.414Z,34.33
2018-07-24T08:19:51.092Z,35.04
2018-07-24T08:24:48.637Z,35.80
2018-07-24T08:29:45.697Z,35.71
2018-07-24T08:34:42.432Z,35.97
2018-07-24T08:39:40.089Z,35.70
2018-07-24T08:44:36.161Z,35.22
2018-07-24T08:49:32.510Z,36.33
2018-07-24T08:54:29.577Z,36.43
2018-07-24T08:59:26.359Z,37.37
2018-07-24T09:04:24.191Z,38.40
2018-07-24T09:09:20.459Z,38.24
2018-07-24T09:14:17.036Z,38.38
2018-07-24T09:19:13.331Z,38.77
2018-07-24T09:24:09.808Z,38.15
2018-07-24T09:29:05.875Z,38.27
2018-07-24T09:34:01.957Z,37.86
2018-07-24T09:38:58.371Z,35.85
2018-07-24T09:43:53.532Z,33.43
2018-07-24T09:48:48.128Z,32.77
2018-07-24T09:53:44.314Z,32.48
2018-07-24T09:58:39.916Z,33.02
2018-07-24T10:03:36.384Z,34.61
2018-07-24T10:08:33.256Z,35.42
2018-07-24T10:13:29.843Z,34.20
2018-07-24T10:18:26.334Z,35.85
2018-07-24T10:23:23.103Z,36.36
2018-07-24T10:28:19.956Z,37.35
2018-07-24T10:33:16.954Z,38.21
2018-07-24T10:38:13.506Z,35.71
2018-07-24T10:43:10.332Z,34.51
2018-07-24T10:48:07.013Z,35.86
2018-07-24T10:53:03.384Z,36.98
2018-07-24T10:58:00.322Z,37.65
2018-07-24T11:02:57.393Z,38.11
2018-07-24T11:07:54.141Z,38.79
2018-07-24T11:12:50.981Z,38.68
2018-07-24T11:17:47.386Z,37.80
2018-07-24T11:22:44.285Z,37.26
2018-07-24T11:27:42.453Z,36.95
2018-07-24T11:32:39.222Z,37.21
2018-07-24T11:37:35.384Z,37.72
2018-07-24T11:42:33.063Z,38.23
2018-07-24T11:47:30.738Z,38.87
2018-07-24T11:52:27.217Z,38.68
2018-07-24T11:57:24.396Z,38.54
2018-07-24T12:02:20.470Z,38.62
2018-07-24T12:07:16.929Z,39.55
2018-07-24T12:12:12.518Z,36.07
2018-07-24T12:17:08.002Z,36.61
2018-07-24T12:22:04.101Z,36.99
2018-07-24T12:26:59.938Z,36.31
2018-07-24T12:31:56.093Z,37.96
2018-07-24T12:36:52.566Z,38.62
2018-07-24T12:41:48.878Z,36.93
2018-07-24T12:46:44.523Z,36.30
2018-07-24T12:51:39.800Z,35.80
2018-07-24T12:56:35.486Z,37.32
2018-07-24T13:01:32.104Z,38.27
2018-07-24T13:06:28.516Z,39.11
2018-07-24T13:11:24.559Z,37.67
2018-07-24T13:16:20.204Z,37.35
2018-07-24T13:21:16.744Z,38.40
2018-07-24T13:26:13.187Z,38.54
2018-07-24T13:31:09.246Z,37.01
2018-07-24T13:36:04.596Z,35.27
2018-07-24T13:40:59.407Z,36.07
2018-07-24T13:45:55.690Z,37.49
2018-07-24T13:50:52.186Z,38.06
2018-07-24T13:55:49.523Z,37.92
2018-07-24T14:00:45.709Z,36.42
2018-07-24T14:05:41.665Z,35.73
2018-07-24T14:10:37.495Z,35.82
2018-07-24T14:15:33.358Z,35.58
2018-07-24T14:20:30.291Z,35.08
2018-07-24T14:25:25.084Z,34.40
2018-07-24T14:30:20.319Z,34.27
2018-07-24T14:35:15.786Z,33.99
2018-07-24T14:40:11.383Z,33.73
2018-07-24T14:45:07.853Z,33.68
2018-07-24T14:50:03.093Z,33.50
2018-07-24T14:54:59.703Z,33.23
2018-07-24T14:59:56.545Z,32.83
2018-07-24T15:04:51.929Z,32.97
2018-07-24T15:09:48.892Z,32.97
2018-07-24T15:14:45.535Z,32.85
2018-07-24T15:19:41.033Z,32.82
2018-07-24T15:24:37.090Z,32.86
2018-07-24T15:29:33.193Z,32.90
2018-07-24T15:34:29.375Z,32.74
2018-07-24T15:39:25.393Z,32.78
2018-07-24T15:44:22.491Z,32.68
2018-07-24T15:49:18.184Z,32.58
2018-07-24T15:54:14.272Z,32.65
2018-07-24T15:59:11.322Z,32.64
2018-07-24T16:04:08.250Z,32.75
2018-07-24T16:09:04.045Z,32.43
2018-07-24T16:14:00.593Z,32.49
2018-07-24T16:18:57.623Z,32.49
2018-07-24T16:23:54.830Z,32.59
2018-07-24T16:28:51.123Z,32.49
2018-07-24T16:33:47.080Z,32.48
2018-07-24T16:38:44.414Z,32.46
2018-07-24T16:43:40.160Z,32.46
2018-07-24T16:48:36.170Z,32.48
2018-07-24T16:53:33.266Z,32.43
2018-07-24T16:58:29.137Z,32.49
2018-07-24T17:03:25.678Z,32.45
2018-07-24T17:08:21.763Z,32.41
2018-07-24T17:13:19.324Z,32.49
2018-07-24T17:18:16.069Z,32.48
2018-07-24T17:23:11.928Z,32.45
2018-07-24T17:28:08.170Z,32.45
2018-07-24T17:33:04.177Z,32.37
2018-07-24T17:38:00.197Z,32.29
2018-07-24T17:42:57.277Z,32.21
2018-07-24T17:47:53.225Z,32.14
2018-07-24T17:52:49.196Z,32.08
2018-07-24T17:57:46.461Z,32.07
2018-07-24T18:02:42.151Z,32.00
2018-07-24T18:07:39.398Z,31.93
2018-07-24T18:12:36.058Z,32.00
2018-07-24T18:17:31.848Z,31.99
2018-07-24T18:22:29.160Z,31.77
2018-07-24T18:27:24.848Z,31.62
2018-07-24T18:32:20.931Z,31.61
2018-07-24T18:37:16.895Z,31.54
2018-07-24T18:42:12.958Z,31.34
2018-07-24T18:47:08.918Z,31.24
2018-07-24T18:52:05.114Z,31.17
2018-07-24T18:57:02.413Z,30.99
2018-07-24T19:01:59.220Z,30.73
2018-07-24T19:06:54.847Z,30.65
2018-07-24T19:11:50.978Z,30.51
2018-07-24T19:16:46.893Z,30.39
2018-07-24T19:21:42.799Z,30.24
2018-07-24T19:26:38.923Z,30.12
2018-07-24T19:31:34.909Z,30.08
2018-07-24T19:36:30.741Z,29.97
2018-07-24T19:41:27.816Z,29.79
2018-07-24T19:46:24.651Z,29.63
2018-07-24T19:51:21.275Z,29.56
2018-07-24T19:56:17.041Z,29.38
2018-07-24T20:01:14.583Z,29.36
2018-07-24T20:06:11.699Z,29.27
2018-07-24T20:11:08.452Z,29.20
2018-07-24T20:16:04.029Z,29.27
2018-07-24T20:21:00.142Z,29.26
2018-07-24T20:25:56.459Z,29.16
2018-07-24T20:30:53.325Z,29.05
2018-07-24T20:35:49.122Z,28.79
2018-07-24T20:40:44.959Z,28.37
2018-07-24T20:45:41.758Z,28.44
2018-07-24T20:50:37.387Z,28.39
2018-07-24T20:55:33.793Z,28.37
2018-07-24T21:00:29.458Z,28.15
2018-07-24T21:05:25.472Z,28.04
2018-07-24T21:10:21.301Z,27.92
2018-07-24T21:15:17.306Z,27.82
2018-07-24T21:20:13.099Z,27.49
2018-07-24T21:25:10.119Z,27.44
2018-07-24T21:30:05.640Z,27.51
2018-07-24T21:35:01.735Z,27.36
2018-07-24T21:39:58.675Z,27.47
2018-07-24T21:44:54.482Z,27.45
2018-07-24T21:49:50.956Z,27.25
2018-07-24T21:54:47.131Z,27.40
2018-07-24T21:59:44.015Z,27.32
2018-07-24T22:04:40.762Z,27.45
2018-07-24T22:09:36.702Z,27.27
2018-07-24T22:14:32.594Z,27.21
2018-07-24T22:19:28.694Z,27.21
2018-07-24T22:24:24.515Z,27.30
2018-07-24T22:29:20.628Z,27.14
2018-07-24T22:34:16.818Z,27.14
2018-07-24T22:39:12.702Z,27.05
2018-07-24T22:44:09.185Z,27.03
2018-07-24T22:49:05.111Z,27.05
2018-07-24T22:54:01.049Z,26.92
2018-07-24T22:58:57.136Z,26.70
2018-07-24T23:03:52.970Z,26.85
2018-07-24T23:08:48.905Z,26.75
2018-07-24T23:13:44.946Z,26.81
2018-07-24T23:18:41.070Z,26.77
2018-07-24T23:23:38.076Z,26.51
2018-07-24T23:28:33.712Z,26.62
2018-07-24T23:33:29.872Z,26.58
2018-07-24T23:38:26.017Z,26.45
2018-07-24T23:43:21.883Z,26.31
2018-07-24T23:48:19.129Z,26.23
2018-07-24T23:53:14.784Z,25.99
2018-07-24T23:58:10.575Z,26.02
